ADDS METAR Data INFO
IDs: Format: Raw Decoded Include TAF

Data at: 0807 UTC 24 May 2018

KCYS 240753Z AUTO 31005KT 10SM CLR 09/06 A3011 RMK AO2 SLP130 T00940056
KCYS 240653Z AUTO 24005KT 10SM CLR 10/06 A3011 RMK AO2 SLP129 T01000061 402220067
KCYS 240553Z AUTO 27004KT 10SM CLR 11/06 A3010 RMK AO2 SLP125 T01060061 10222 20106 51019
KCYS 240453Z AUTO 24005KT 10SM CLR 11/07 A3009 RMK AO2 SLP124 T01110072
KCYS 240353Z 00000KT 10SM CLR 14/06 A3007 RMK AO2 SLP113 T01440056
KCYS 240253Z 33004KT 10SM CLR 16/07 A3003 RMK AO2 SLP099 T01610072 53009
KCYS 240153Z 26007KT 10SM CLR 18/10 A3002 RMK AO2 SLP097 T01780100
KCYS 240053Z 27003KT 10SM CLR 19/09 A3001 RMK AO2 SLP097 T01940094
KCYS 232353Z 21009KT 10SM CLR 22/05 A3000 RMK AO2 LTG DSNT N SLP093 T02170050 10222 20200 56010
KCYS 232253Z 19010KT 10SM CLR 22/08 A3001 RMK AO2 LTG DSNT NW SLP098 T02170078
KCYS 232153Z 15011KT 10SM CLR 22/09 A3001 RMK AO2 SLP093 T02220089
KCYS 232053Z 19010KT 10SM CLR 21/09 A3004 RMK AO2 SLP106 T02060089 58002
KCYS 231953Z 17013KT 10SM FEW050 22/10 A3004 RMK AO2 LTG DSNT SW SLP107 T02170100
KCYS 231853Z 24012KT 10SM CLR 21/11 A3006 RMK AO2 SLP110 T02060106
KCYS 231753Z 20010KT 10SM CLR 21/11 A3005 RMK AO2 SLP104 T02060106 10206 20072 57005
KCYS 231653Z 20014KT 10SM CLR 19/10 A3005 RMK AO2 SLP108 T01890100
KCYS 231553Z 19011KT 10SM CLR 17/09 A3006 RMK AO2 SLP115 T01720089
KCYS 231453Z 20010KT 10SM CLR 16/09 A3006 RMK AO2 SLP114 T01610089 51003
KCYS 231353Z 20010KT 10SM CLR 13/08 A3006 RMK AO2 SLP121 T01280083
KCYS 231253Z 19003KT 10SM CLR 10/07 A3007 RMK AO2 SLP118 T01000072
KCYS 231153Z 22004KT 10SM CLR 08/05 A3005 RMK AO2 SLP118 70021 T00780050 10111 20067 53010
KCYS 231053Z AUTO 27007KT 10SM CLR 07/06 A3002 RMK AO2 SLP107 T00720061
KCYS 230953Z AUTO 29012KT 10SM CLR 09/06 A3001 RMK AO2 SLP095 T00890061
KCYS 230853Z AUTO 29006KT 10SM CLR 09/07 A3002 RMK AO2 SLP095 T00890072 56004
KCYS 230753Z AUTO 29004KT 10SM CLR 08/08 A3002 RMK AO2 SLP097 T00830078
KCYS 230653Z AUTO 30004KT 10SM CLR 11/09 A3002 RMK AO2 SLP094 T01060089 402220072
KCYS 230553Z AUTO 32006KT 10SM CLR 11/10 A3003 RMK AO2 SLP101 60021 T01110100 10183 20111 50002
KCYS 230453Z AUTO 31005KT 10SM CLR 12/11 A3005 RMK AO2 RAE20 SLP107 P0003 T01170106
KCYS 230353Z AUTO 08008KT 4SM RA BR BKN046 OVC060 12/11 A3006 RMK AO2 LTG DSNT E SLP114 P0011 T01170106
KCYS 230339Z 17008KT 6SM -RA BR OVC060 12/11 A3008 RMK AO2 LTG DSNT NE-SE P0007 T01220106
KCYS 230313Z 21009KT 9SM VCTS -RA OVC070 13/11 A3004 RMK AO2 LTG DSNT E-S P0001 T01280111
KCYS 230253Z 24009KT 8SM -RA OVC070 14/11 A3002 RMK AO2 LTG DSNT NE-S RAE04B30 SLP101 P0002 60007 T01390111 53020
KCYS 230153Z 27005KT 5SM -RA BR BKN055 BKN070 OVC100 13/11 A3000 RMK AO2 LTG DSNT E-SW RAB07 SLP093 P0005 T01330111
KCYS 230116Z 15012G21KT 10SM VCTS -RA BKN070 OVC085 18/06 A2997 RMK AO2 LTG DSNT SE-SW RAB07 P0000 T01830056
KCYS 230053Z 13009KT 10SM FEW055 BKN070 OVC110 18/10 A2998 RMK AO2 LTG DSNT S AND SW SLP086 T01830100
KCYS 222353Z 12006KT 10SM CLR 19/10 A2995 RMK AO2 LTG DSNT SW SLP083 T01890100 10222 20189 56003
KCYS 222253Z 12013G22KT 10SM CLR 19/09 A2996 RMK AO2 PK WND 12028/2228 SLP082 T01940089
KCYS 222153Z 10016G23KT 10SM CLR 22/10 A2994 RMK AO2 SLP070 T02170100
KCYS 222053Z 11015G20KT 10SM CLR 22/08 A2996 RMK AO2 SLP079 T02170083 58012